• Join FlightAware (Why Join?)
  • Login
  • US Flag 
04:28PM EDT


 

Airport Tracker/Info


-or-


 

Live Flight TrackerFlight Track Log ✈ AWE2740 ✈ 04-May-2013 ✈ KCHS - KCLT

Flight Track Log - Related Links

Times and Time Zones

All times are in EDT time to prevent confusion due to time zone crossing. See the AWE2740 flight status page for this flight to view local times or setup timezone preferences in your user account.

Time Position Orientation Groundspeed Altitude Reporting Facility
EDT Latitude Longitude Course Direction KTS MPH feet Rate Location/Type
06:24PM 33.0019 -80.0069 North 222 255 4,300  Level Jacksonville Center
06:25PM 33.1064 -79.9667 North  Level FlightAware Approximate
06:25PM 33.0744 -79.9822 16° North 250 288 7,300  Level Jacksonville Center
06:26PM 33.1809 -79.9476 19° North  Level FlightAware Approximate
06:26PM 33.1533 -79.9600 13° North 268 308 10,300  Level Jacksonville Center
06:27PM 33.2556 -79.9256 North  Level FlightAware Approximate
06:27PM 33.2425 -79.9347 13° North 298 343 11,800  Level Jacksonville Center
06:28PM 33.3296 -79.9019 23° Northeast  Level FlightAware Approximate
06:28PM 33.3611 -79.9158 North 360 414 14,200  Level Jacksonville Center
06:29PM 33.4031 -79.8761 North  Level FlightAware Approximate
06:29PM 33.4658 -79.9322 353° North 381 438 16,500  Level Jacksonville Center
06:30PM 33.5750 -79.9658 346° North 386 444 17,000 240 Climbing Jacksonville Center
06:31PM 33.6844 -80.0047 344° North 396 456 17,000  Level Jacksonville Center
06:32PM 33.7958 -80.0386 346° North 401 461 17,100  Climbing Jacksonville Center
06:33PM 33.9050 -80.0750 345° North 406 467 17,100  Level Jacksonville Center
06:34PM 34.0164 -80.1117 345° North 406 467 17,100  Level Jacksonville Center
06:35PM 34.1300 -80.1506 344° North 406 467 17,100  Level Jacksonville Center
06:36PM 34.2436 -80.1872 345° North 412 474 17,100 -600 Level Jacksonville Center
06:37PM 34.3569 -80.2239 345° North 417 480 15,900 -1,500 Descending Jacksonville Center
06:38PM 34.4683 -80.2633 344° North 417 480 14,100 -1,500 Descending Jacksonville Center
06:40PM 34.7117 -80.3572 342° North 410 472 11,100 -1,140 Descending Atlanta Center
06:41PM 34.7731 -80.4581 307° West 334 384 10,400 -900 Descending Atlanta Center
06:42PM 34.7781 -80.5592 273° West 285 328 9,300 -1,080 Descending Atlanta Center
06:43PM 34.7831 -80.6675 273° West 298 343 8,100 -840 Descending Atlanta Center
06:44PM 34.7856 -80.7586 272° West 285 328 7,700 -720 Descending Atlanta Center
06:45PM 34.7961 -80.8367 279° West 253 291 6,800 -960 Descending Atlanta Center
06:46PM 34.8394 -80.9083 306° West 272 313 5,900 -840 Descending Atlanta Center
06:47PM 34.9031 -80.9414 337° Northwest 235 270 5,100 -420 Descending Atlanta Center
06:48PM 34.9636 -80.9467 356° North 191 220 5,100 -120 Level Atlanta Center
06:49PM 35.0139 -80.9550 352° North 199 229 4,900 -780 Descending Atlanta Center
06:50PM 35.0744 -80.9578 358° North 201 231 3,600 -1,080 Descending Atlanta Center
06:51PM 35.1247 -80.9611 357° North 181 208 2,600 -1,080 Descending Atlanta Center
06:52PM 35.1644 -80.9647 356° North 135 155 1,500 -1,140 Descending Atlanta Center